sensor_id;sensor_type;location;lat;lon;timestamp;pressure;altitude;pressure_sealevel;temperature;humidity
26083;BME280;13848;49.018;12.078;2023-03-14T00:01:08;96040.50;;;10.42;80.50
26083;BME280;13848;49.018;12.078;2023-03-14T00:03:35;96043.47;;;10.41;81.07
26083;BME280;13848;49.018;12.078;2023-03-14T00:06:02;96040.22;;;10.33;81.65
26083;BME280;13848;49.018;12.078;2023-03-14T00:08:29;96034.81;;;10.33;81.70
26083;BME280;13848;49.018;12.078;2023-03-14T00:10:55;96033.56;;;10.09;83.58
26083;BME280;13848;49.018;12.078;2023-03-14T00:13:21;96036.81;;;10.11;83.92
26083;BME280;13848;49.018;12.078;2023-03-14T00:15:47;96034.09;;;10.11;83.07
26083;BME280;13848;49.018;12.078;2023-03-14T00:18:12;96002.34;;;10.13;83.08
26083;BME280;13848;49.018;12.078;2023-03-14T00:20:38;95996.44;;;10.16;82.81
26083;BME280;13848;49.018;12.078;2023-03-14T00:23:04;95995.88;;;10.14;83.34
26083;BME280;13848;49.018;12.078;2023-03-14T00:25:31;95975.34;;;10.03;84.32
26083;BME280;13848;49.018;12.078;2023-03-14T00:27:57;95975.56;;;9.96;84.81
26083;BME280;13848;49.018;12.078;2023-03-14T00:30:23;96002.44;;;9.86;85.74
26083;BME280;13848;49.018;12.078;2023-03-14T00:32:49;96066.66;;;9.72;86.33
26083;BME280;13848;49.018;12.078;2023-03-14T00:35:16;96050.50;;;9.72;86.27
26083;BME280;13848;49.018;12.078;2023-03-14T00:37:42;96045.66;;;9.69;85.93
26083;BME280;13848;49.018;12.078;2023-03-14T00:40:09;96052.47;;;9.82;84.97
26083;BME280;13848;49.018;12.078;2023-03-14T00:42:36;96085.09;;;9.91;84.79
26083;BME280;13848;49.018;12.078;2023-03-14T00:45:03;96074.94;;;9.98;84.00
26083;BME280;13848;49.018;12.078;2023-03-14T00:47:29;96076.03;;;10.02;83.67
26083;BME280;13848;49.018;12.078;2023-03-14T00:49:55;96079.84;;;10.06;83.19
26083;BME280;13848;49.018;12.078;2023-03-14T00:52:21;96079.59;;;10.07;83.09
26083;BME280;13848;49.018;12.078;2023-03-14T00:54:47;96072.88;;;10.10;82.95
26083;BME280;13848;49.018;12.078;2023-03-14T00:57:13;96073.38;;;10.07;83.05
26083;BME280;13848;49.018;12.078;2023-03-14T00:59:40;96085.28;;;10.11;83.05
26083;BME280;13848;49.018;12.078;2023-03-14T01:02:06;96081.19;;;10.08;83.05
26083;BME280;13848;49.018;12.078;2023-03-14T01:04:32;96105.59;;;9.97;84.42
26083;BME280;13848;49.018;12.078;2023-03-14T01:06:58;96097.97;;;9.83;85.98
26083;BME280;13848;49.018;12.078;2023-03-14T01:09:24;96100.97;;;9.87;86.22
26083;BME280;13848;49.018;12.078;2023-03-14T01:11:50;96079.53;;;9.97;85.18
26083;BME280;13848;49.018;12.078;2023-03-14T01:14:16;96087.84;;;9.96;86.06
26083;BME280;13848;49.018;12.078;2023-03-14T01:16:43;96094.50;;;9.88;86.98
26083;BME280;13848;49.018;12.078;2023-03-14T01:19:09;96077.88;;;9.96;85.87
26083;BME280;13848;49.018;12.078;2023-03-14T01:21:35;96066.88;;;10.03;85.44
26083;BME280;13848;49.018;12.078;2023-03-14T01:24:03;96062.13;;;10.10;84.59
26083;BME280;13848;49.018;12.078;2023-03-14T01:26:31;96042.16;;;10.06;85.52
26083;BME280;13848;49.018;12.078;2023-03-14T01:28:58;96062.34;;;10.08;84.88
26083;BME280;13848;49.018;12.078;2023-03-14T01:31:24;96061.81;;;10.06;85.44
26083;BME280;13848;49.018;12.078;2023-03-14T01:33:52;96056.66;;;10.00;85.76
26083;BME280;13848;49.018;12.078;2023-03-14T01:36:18;96045.91;;;10.05;85.35
26083;BME280;13848;49.018;12.078;2023-03-14T01:38:44;96055.34;;;10.07;85.40
26083;BME280;13848;49.018;12.078;2023-03-14T01:41:13;96066.31;;;9.96;86.91
26083;BME280;13848;49.018;12.078;2023-03-14T01:43:39;96071.16;;;9.67;89.28
26083;BME280;13848;49.018;12.078;2023-03-14T01:46:18;96074.28;;;9.53;90.86
26083;BME280;13848;49.018;12.078;2023-03-14T01:48:49;96068.34;;;9.51;91.22
26083;BME280;13848;49.018;12.078;2023-03-14T01:51:27;96074.50;;;9.47;92.27
26083;BME280;13848;49.018;12.078;2023-03-14T01:54:07;96067.78;;;9.49;92.25
26083;BME280;13848;49.018;12.078;2023-03-14T01:56:35;96069.81;;;9.64;91.10
26083;BME280;13848;49.018;12.078;2023-03-14T01:59:06;96067.63;;;9.61;90.92
26083;BME280;13848;49.018;12.078;2023-03-14T02:01:34;96045.56;;;9.59;90.47
26083;BME280;13848;49.018;12.078;2023-03-14T02:04:02;96045.03;;;9.62;90.10
26083;BME280;13848;49.018;12.078;2023-03-14T02:06:38;96041.31;;;9.68;89.44
26083;BME280;13848;49.018;12.078;2023-03-14T02:09:06;96021.38;;;9.64;89.00
26083;BME280;13848;49.018;12.078;2023-03-14T02:11:32;96017.56;;;9.60;89.28
26083;BME280;13848;49.018;12.078;2023-03-14T02:13:59;96000.78;;;9.48;90.02
26083;BME280;13848;49.018;12.078;2023-03-14T02:16:25;95994.56;;;9.42;90.40
26083;BME280;13848;49.018;12.078;2023-03-14T02:18:51;95984.56;;;9.38;90.42
26083;BME280;13848;49.018;12.078;2023-03-14T02:21:22;95975.59;;;9.27;90.70
26083;BME280;13848;49.018;12.078;2023-03-14T02:23:59;95969.31;;;9.16;90.38
26083;BME280;13848;49.018;12.078;2023-03-14T02:26:31;95963.16;;;9.21;90.34
26083;BME280;13848;49.018;12.078;2023-03-14T02:29:03;95962.31;;;9.15;90.39
26083;BME280;13848;49.018;12.078;2023-03-14T02:31:29;95949.66;;;9.11;89.93
26083;BME280;13848;49.018;12.078;2023-03-14T02:33:56;95947.06;;;8.94;90.07
26083;BME280;13848;49.018;12.078;2023-03-14T02:36:23;95971.69;;;8.86;90.62
26083;BME280;13848;49.018;12.078;2023-03-14T02:38:53;95964.44;;;8.86;90.69
26083;BME280;13848;49.018;12.078;2023-03-14T02:41:22;95924.75;;;8.93;90.56
26083;BME280;13848;49.018;12.078;2023-03-14T02:43:48;95932.44;;;8.85;90.69
26083;BME280;13848;49.018;12.078;2023-03-14T02:46:18;95909.66;;;8.87;90.45
26083;BME280;13848;49.018;12.078;2023-03-14T02:48:47;95913.59;;;8.79;90.72
26083;BME280;13848;49.018;12.078;2023-03-14T02:51:13;95896.34;;;8.75;90.97
26083;BME280;13848;49.018;12.078;2023-03-14T02:53:40;95908.22;;;8.79;90.33
26083;BME280;13848;49.018;12.078;2023-03-14T02:56:07;95901.28;;;8.84;89.75
26083;BME280;13848;49.018;12.078;2023-03-14T02:58:34;95893.72;;;8.80;89.40
26083;BME280;13848;49.018;12.078;2023-03-14T03:01:00;95911.97;;;8.78;90.06
26083;BME280;13848;49.018;12.078;2023-03-14T03:03:27;95923.84;;;8.83;89.74
26083;BME280;13848;49.018;12.078;2023-03-14T03:05:56;95962.28;;;8.83;89.90
26083;BME280;13848;49.018;12.078;2023-03-14T03:08:24;95966.84;;;8.83;89.83
26083;BME280;13848;49.018;12.078;2023-03-14T03:10:50;95966.16;;;8.70;91.04
26083;BME280;13848;49.018;12.078;2023-03-14T03:13:17;95975.72;;;8.61;91.74
26083;BME280;13848;49.018;12.078;2023-03-14T03:15:43;95987.59;;;8.65;91.68
26083;BME280;13848;49.018;12.078;2023-03-14T03:18:10;95981.72;;;8.68;91.59
26083;BME280;13848;49.018;12.078;2023-03-14T03:20:37;95985.34;;;8.57;92.43
26083;BME280;13848;49.018;12.078;2023-03-14T03:23:16;95998.34;;;8.65;92.04
26083;BME280;13848;49.018;12.078;2023-03-14T03:25:42;95999.78;;;8.73;91.55
26083;BME280;13848;49.018;12.078;2023-03-14T03:28:08;96009.19;;;8.75;90.89
26083;BME280;13848;49.018;12.078;2023-03-14T03:30:37;96007.91;;;8.78;90.55
26083;BME280;13848;49.018;12.078;2023-03-14T03:33:03;96004.19;;;8.84;90.34
26083;BME280;13848;49.018;12.078;2023-03-14T03:35:29;96003.50;;;8.94;89.70
26083;BME280;13848;49.018;12.078;2023-03-14T03:37:56;96005.00;;;8.85;89.90
26083;BME280;13848;49.018;12.078;2023-03-14T03:40:22;96001.91;;;8.71;90.48
26083;BME280;13848;49.018;12.078;2023-03-14T03:42:48;95995.53;;;8.77;90.30
26083;BME280;13848;49.018;12.078;2023-03-14T03:45:14;95994.88;;;8.92;89.73
26083;BME280;13848;49.018;12.078;2023-03-14T03:47:40;95987.00;;;8.85;89.54
26083;BME280;13848;49.018;12.078;2023-03-14T03:50:07;95980.81;;;8.85;89.89
26083;BME280;13848;49.018;12.078;2023-03-14T03:52:33;95972.69;;;8.79;89.97
26083;BME280;13848;49.018;12.078;2023-03-14T03:55:00;95970.97;;;8.68;90.54
26083;BME280;13848;49.018;12.078;2023-03-14T03:57:26;95965.59;;;8.68;90.84
26083;BME280;13848;49.018;12.078;2023-03-14T03:59:52;95957.38;;;8.80;89.96
26083;BME280;13848;49.018;12.078;2023-03-14T04:02:18;95962.56;;;8.87;89.48
26083;BME280;13848;49.018;12.078;2023-03-14T04:04:44;95961.84;;;8.69;90.29
26083;BME280;13848;49.018;12.078;2023-03-14T04:07:09;95962.69;;;8.70;90.42
26083;BME280;13848;49.018;12.078;2023-03-14T04:09:37;95965.94;;;8.50;91.62
26083;BME280;13848;49.018;12.078;2023-03-14T04:12:05;95962.75;;;8.53;91.36
26083;BME280;13848;49.018;12.078;2023-03-14T04:14:31;95953.63;;;8.54;91.13
26083;BME280;13848;49.018;12.078;2023-03-14T04:16:57;95940.50;;;8.58;91.21
26083;BME280;13848;49.018;12.078;2023-03-14T04:19:22;95953.50;;;8.44;92.02
26083;BME280;13848;49.018;12.078;2023-03-14T04:21:48;95943.94;;;8.53;91.53
26083;BME280;13848;49.018;12.078;2023-03-14T04:24:14;95937.50;;;8.54;91.35
26083;BME280;13848;49.018;12.078;2023-03-14T04:26:40;95929.88;;;8.46;91.97
26083;BME280;13848;49.018;12.078;2023-03-14T04:29:07;95929.88;;;8.46;91.84
26083;BME280;13848;49.018;12.078;2023-03-14T04:31:33;95923.50;;;8.52;91.51
26083;BME280;13848;49.018;12.078;2023-03-14T04:33:59;95916.50;;;8.51;91.46
26083;BME280;13848;49.018;12.078;2023-03-14T04:36:26;95913.59;;;8.52;91.29
26083;BME280;13848;49.018;12.078;2023-03-14T04:38:51;95912.81;;;8.57;91.20
26083;BME280;13848;49.018;12.078;2023-03-14T04:41:17;95910.25;;;8.67;90.55
26083;BME280;13848;49.018;12.078;2023-03-14T04:43:43;95915.94;;;8.71;90.37
26083;BME280;13848;49.018;12.078;2023-03-14T04:46:10;95904.88;;;8.67;90.39
26083;BME280;13848;49.018;12.078;2023-03-14T04:48:36;95915.00;;;8.60;90.41
26083;BME280;13848;49.018;12.078;2023-03-14T04:51:02;95906.50;;;8.68;90.05
26083;BME280;13848;49.018;12.078;2023-03-14T04:53:28;95903.84;;;8.46;91.23
26083;BME280;13848;49.018;12.078;2023-03-14T04:55:55;95901.03;;;8.58;90.61
26083;BME280;13848;49.018;12.078;2023-03-14T04:58:22;95910.25;;;8.67;89.84
26083;BME280;13848;49.018;12.078;2023-03-14T05:00:48;95917.22;;;8.68;90.13
26083;BME280;13848;49.018;12.078;2023-03-14T05:03:16;95903.25;;;8.66;89.84
26083;BME280;13848;49.018;12.078;2023-03-14T05:05:42;95901.38;;;8.67;89.72
26083;BME280;13848;49.018;12.078;2023-03-14T05:08:08;95909.19;;;8.46;90.79
26083;BME280;13848;49.018;12.078;2023-03-14T05:10:34;95914.50;;;8.36;91.55
26083;BME280;13848;49.018;12.078;2023-03-14T05:13:00;95919.66;;;8.43;91.48
26083;BME280;13848;49.018;12.078;2023-03-14T05:15:26;95903.75;;;8.36;91.76
26083;BME280;13848;49.018;12.078;2023-03-14T05:17:52;95893.19;;;8.35;92.12
26083;BME280;13848;49.018;12.078;2023-03-14T05:20:20;95904.41;;;8.26;92.22
26083;BME280;13848;49.018;12.078;2023-03-14T05:22:46;95897.41;;;8.25;92.90
26083;BME280;13848;49.018;12.078;2023-03-14T05:25:12;95905.22;;;8.27;92.77
26083;BME280;13848;49.018;12.078;2023-03-14T05:27:38;95902.25;;;8.28;92.58
26083;BME280;13848;49.018;12.078;2023-03-14T05:30:05;95894.66;;;8.20;93.00
26083;BME280;13848;49.018;12.078;2023-03-14T05:32:32;95896.59;;;8.25;92.51
26083;BME280;13848;49.018;12.078;2023-03-14T05:34:58;95897.84;;;8.17;92.96
26083;BME280;13848;49.018;12.078;2023-03-14T05:37:25;95898.91;;;8.16;92.45
26083;BME280;13848;49.018;12.078;2023-03-14T05:39:51;95886.66;;;8.25;91.91
26083;BME280;13848;49.018;12.078;2023-03-14T05:42:17;95883.06;;;8.37;90.96
26083;BME280;13848;49.018;12.078;2023-03-14T05:44:43;95883.78;;;8.32;90.68
26083;BME280;13848;49.018;12.078;2023-03-14T05:47:09;95881.66;;;8.34;90.44
26083;BME280;13848;49.018;12.078;2023-03-14T05:49:35;95884.94;;;8.36;90.12
26083;BME280;13848;49.018;12.078;2023-03-14T05:52:01;95881.75;;;8.39;90.07
26083;BME280;13848;49.018;12.078;2023-03-14T05:54:28;95883.06;;;8.37;89.39
26083;BME280;13848;49.018;12.078;2023-03-14T05:56:54;95889.91;;;8.27;90.29
26083;BME280;13848;49.018;12.078;2023-03-14T05:59:20;95887.63;;;8.36;89.69
26083;BME280;13848;49.018;12.078;2023-03-14T06:01:46;95889.91;;;8.27;90.23
26083;BME280;13848;49.018;12.078;2023-03-14T06:04:12;95892.59;;;8.27;90.13
26083;BME280;13848;49.018;12.078;2023-03-14T06:06:38;95890.50;;;8.35;89.63
26083;BME280;13848;49.018;12.078;2023-03-14T06:09:04;95888.50;;;8.42;89.24
26083;BME280;13848;49.018;12.078;2023-03-14T06:11:31;95881.84;;;8.49;89.16
26083;BME280;13848;49.018;12.078;2023-03-14T06:13:57;95887.53;;;8.53;88.82
26083;BME280;13848;49.018;12.078;2023-03-14T06:16:23;95881.06;;;8.49;88.90
26083;BME280;13848;49.018;12.078;2023-03-14T06:18:49;95886.41;;;8.49;88.86
26083;BME280;13848;49.018;12.078;2023-03-14T06:21:15;95886.91;;;8.46;88.55
26083;BME280;13848;49.018;12.078;2023-03-14T06:23:41;95886.97;;;8.51;88.07
26083;BME280;13848;49.018;12.078;2023-03-14T06:26:07;95889.06;;;8.44;88.54
26083;BME280;13848;49.018;12.078;2023-03-14T06:28:34;95887.84;;;8.35;87.93
26083;BME280;13848;49.018;12.078;2023-03-14T06:31:00;95893.47;;;8.33;88.11
26083;BME280;13848;49.018;12.078;2023-03-14T06:33:26;95882.47;;;8.35;88.08
26083;BME280;13848;49.018;12.078;2023-03-14T06:35:52;95877.88;;;8.30;87.81
26083;BME280;13848;49.018;12.078;2023-03-14T06:38:21;95885.81;;;8.42;87.82
26083;BME280;13848;49.018;12.078;2023-03-14T06:40:47;95891.59;;;8.34;86.97
26083;BME280;13848;49.018;12.078;2023-03-14T06:43:13;95883.53;;;8.34;87.10
26083;BME280;13848;49.018;12.078;2023-03-14T06:45:40;95881.44;;;8.36;87.00
26083;BME280;13848;49.018;12.078;2023-03-14T06:48:06;95872.78;;;8.34;86.21
26083;BME280;13848;49.018;12.078;2023-03-14T06:50:32;95876.22;;;8.29;86.16
26083;BME280;13848;49.018;12.078;2023-03-14T06:52:58;95876.88;;;8.36;86.45
26083;BME280;13848;49.018;12.078;2023-03-14T06:55:24;95886.31;;;8.39;85.93
26083;BME280;13848;49.018;12.078;2023-03-14T06:57:50;95887.13;;;8.39;85.83
26083;BME280;13848;49.018;12.078;2023-03-14T07:00:17;95874.00;;;8.43;85.51
26083;BME280;13848;49.018;12.078;2023-03-14T07:02:44;95881.06;;;8.49;85.71
26083;BME280;13848;49.018;12.078;2023-03-14T07:05:10;95890.19;;;8.48;85.15
26083;BME280;13848;49.018;12.078;2023-03-14T07:07:36;95876.16;;;8.46;85.05
26083;BME280;13848;49.018;12.078;2023-03-14T07:10:02;95871.88;;;8.45;84.75
26083;BME280;13848;49.018;12.078;2023-03-14T07:12:28;95868.31;;;8.39;84.65
26083;BME280;13848;49.018;12.078;2023-03-14T07:14:54;95864.00;;;8.38;84.94
26083;BME280;13848;49.018;12.078;2023-03-14T07:17:20;95875.56;;;8.39;84.65
26083;BME280;13848;49.018;12.078;2023-03-14T07:19:47;95875.00;;;8.37;84.84
26083;BME280;13848;49.018;12.078;2023-03-14T07:22:13;95873.47;;;8.41;84.84
26083;BME280;13848;49.018;12.078;2023-03-14T07:24:39;95875.06;;;8.42;84.69
26083;BME280;13848;49.018;12.078;2023-03-14T07:27:05;95879.97;;;8.50;84.78
26083;BME280;13848;49.018;12.078;2023-03-14T07:29:31;95886.75;;;8.52;84.05
26083;BME280;13848;49.018;12.078;2023-03-14T07:31:56;95887.03;;;8.56;84.03
26083;BME280;13848;49.018;12.078;2023-03-14T07:34:22;95887.63;;;8.63;83.14
26083;BME280;13848;49.018;12.078;2023-03-14T07:36:50;95899.59;;;8.50;83.76
26083;BME280;13848;49.018;12.078;2023-03-14T07:39:15;95899.91;;;8.54;83.74
26083;BME280;13848;49.018;12.078;2023-03-14T07:41:41;95893.78;;;8.59;83.53
26083;BME280;13848;49.018;12.078;2023-03-14T07:44:07;95902.59;;;8.54;83.54
26083;BME280;13848;49.018;12.078;2023-03-14T07:46:33;95907.66;;;8.50;83.59
26083;BME280;13848;49.018;12.078;2023-03-14T07:48:59;95911.88;;;8.68;83.40
26083;BME280;13848;49.018;12.078;2023-03-14T07:51:25;95913.19;;;8.66;82.70
26083;BME280;13848;49.018;12.078;2023-03-14T07:53:52;95920.28;;;8.50;82.63
26083;BME280;13848;49.018;12.078;2023-03-14T07:56:18;95928.59;;;8.48;83.08
26083;BME280;13848;49.018;12.078;2023-03-14T07:58:44;95928.31;;;8.50;82.91
26083;BME280;13848;49.018;12.078;2023-03-14T08:01:10;95930.47;;;8.48;82.59
26083;BME280;13848;49.018;12.078;2023-03-14T08:03:36;95933.38;;;8.46;82.87
26083;BME280;13848;49.018;12.078;2023-03-14T08:06:02;95936.19;;;8.57;82.57
26083;BME280;13848;49.018;12.078;2023-03-14T08:08:27;95937.91;;;8.68;82.40
26083;BME280;13848;49.018;12.078;2023-03-14T08:10:55;95929.31;;;8.66;82.33
26083;BME280;13848;49.018;12.078;2023-03-14T08:13:21;95929.56;;;8.64;81.81
26083;BME280;13848;49.018;12.078;2023-03-14T08:15:48;95919.88;;;8.63;81.75
26083;BME280;13848;49.018;12.078;2023-03-14T08:18:14;95919.09;;;8.68;81.38
26083;BME280;13848;49.018;12.078;2023-03-14T08:20:39;95913.69;;;8.63;81.36
26083;BME280;13848;49.018;12.078;2023-03-14T08:23:05;95916.22;;;8.74;81.64
26083;BME280;13848;49.018;12.078;2023-03-14T08:25:31;95912.47;;;8.75;80.95
26083;BME280;13848;49.018;12.078;2023-03-14T08:27:58;95909.75;;;8.70;80.92
26083;BME280;13848;49.018;12.078;2023-03-14T08:30:25;95906.59;;;8.78;79.76
26083;BME280;13848;49.018;12.078;2023-03-14T08:32:51;95903.22;;;8.88;80.08
26083;BME280;13848;49.018;12.078;2023-03-14T08:35:17;95892.09;;;8.79;79.98
26083;BME280;13848;49.018;12.078;2023-03-14T08:37:42;95900.19;;;8.85;79.86
26083;BME280;13848;49.018;12.078;2023-03-14T08:40:10;95891.06;;;8.86;79.05
26083;BME280;13848;49.018;12.078;2023-03-14T08:42:36;95898.16;;;8.97;78.57
26083;BME280;13848;49.018;12.078;2023-03-14T08:45:05;95889.34;;;9.01;77.93
26083;BME280;13848;49.018;12.078;2023-03-14T08:47:31;95889.13;;;9.08;77.95
26083;BME280;13848;49.018;12.078;2023-03-14T08:49:57;95884.09;;;9.17;77.89
26083;BME280;13848;49.018;12.078;2023-03-14T08:52:23;95884.34;;;9.15;76.66
26083;BME280;13848;49.018;12.078;2023-03-14T08:54:49;95886.78;;;9.17;76.98
26083;BME280;13848;49.018;12.078;2023-03-14T08:57:15;95880.13;;;9.24;76.54
26083;BME280;13848;49.018;12.078;2023-03-14T08:59:41;95884.50;;;9.36;76.72
26083;BME280;13848;49.018;12.078;2023-03-14T09:02:10;95878.03;;;9.37;76.57
26083;BME280;13848;49.018;12.078;2023-03-14T09:04:37;95867.09;;;9.48;76.08
26083;BME280;13848;49.018;12.078;2023-03-14T09:07:03;95871.66;;;9.48;75.52
26083;BME280;13848;49.018;12.078;2023-03-14T09:09:29;95880.00;;;9.46;74.32
26083;BME280;13848;49.018;12.078;2023-03-14T09:11:55;95878.59;;;9.39;75.49
26083;BME280;13848;49.018;12.078;2023-03-14T09:14:21;95878.97;;;9.52;75.25
26083;BME280;13848;49.018;12.078;2023-03-14T09:16:46;95878.91;;;9.42;74.34
26083;BME280;13848;49.018;12.078;2023-03-14T09:19:14;95875.50;;;9.62;74.97
26083;BME280;13848;49.018;12.078;2023-03-14T09:21:40;95872.34;;;9.70;75.12
26083;BME280;13848;49.018;12.078;2023-03-14T09:24:06;95883.66;;;9.72;73.35
26083;BME280;13848;49.018;12.078;2023-03-14T09:26:38;95893.94;;;9.80;72.92
26083;BME280;13848;49.018;12.078;2023-03-14T09:29:04;95879.19;;;9.93;73.21
26083;BME280;13848;49.018;12.078;2023-03-14T09:31:30;95889.09;;;9.82;72.51
26083;BME280;13848;49.018;12.078;2023-03-14T09:33:56;95891.31;;;9.96;73.60
26083;BME280;13848;49.018;12.078;2023-03-14T09:36:23;95892.69;;;9.98;72.49
26083;BME280;13848;49.018;12.078;2023-03-14T09:38:49;95892.69;;;9.98;71.75
26083;BME280;13848;49.018;12.078;2023-03-14T09:41:18;95884.56;;;9.88;72.08
26083;BME280;13848;49.018;12.078;2023-03-14T09:43:47;95894.59;;;10.08;71.31
26083;BME280;13848;49.018;12.078;2023-03-14T09:46:15;95880.56;;;10.01;71.50
26083;BME280;13848;49.018;12.078;2023-03-14T09:48:41;95876.84;;;10.12;71.61
26083;BME280;13848;49.018;12.078;2023-03-14T09:51:12;95890.97;;;10.34;71.45
26083;BME280;13848;49.018;12.078;2023-03-14T09:53:42;95890.44;;;10.32;70.10
26083;BME280;13848;49.018;12.078;2023-03-14T09:56:12;95892.03;;;10.28;69.55
26083;BME280;13848;49.018;12.078;2023-03-14T09:58:41;95887.19;;;10.35;70.16
26083;BME280;13848;49.018;12.078;2023-03-14T10:01:09;95886.22;;;10.62;68.59
26083;BME280;13848;49.018;12.078;2023-03-14T10:03:37;95873.78;;;10.51;68.44
26083;BME280;13848;49.018;12.078;2023-03-14T10:06:11;95881.56;;;10.42;68.93
26083;BME280;13848;49.018;12.078;2023-03-14T10:08:40;95863.34;;;10.85;69.34
26083;BME280;13848;49.018;12.078;2023-03-14T10:11:06;95874.41;;;11.19;65.96
26083;BME280;13848;49.018;12.078;2023-03-14T10:13:32;95861.97;;;11.13;67.62
26083;BME280;13848;49.018;12.078;2023-03-14T10:16:00;95858.47;;;11.12;66.54
26083;BME280;13848;49.018;12.078;2023-03-14T10:18:28;95854.19;;;11.27;66.40
26083;BME280;13848;49.018;12.078;2023-03-14T10:21:06;95847.72;;;10.92;66.14
26083;BME280;13848;49.018;12.078;2023-03-14T10:23:33;95849.06;;;10.84;65.89
26083;BME280;13848;49.018;12.078;2023-03-14T10:26:05;95843.13;;;11.03;66.19
26083;BME280;13848;49.018;12.078;2023-03-14T10:28:33;95843.88;;;11.54;66.12
26083;BME280;13848;49.018;12.078;2023-03-14T10:31:00;95837.06;;;11.82;63.49
26083;BME280;13848;49.018;12.078;2023-03-14T10:33:27;95832.72;;;12.02;62.23
26083;BME280;13848;49.018;12.078;2023-03-14T10:35:55;95826.91;;;12.29;63.66
26083;BME280;13848;49.018;12.078;2023-03-14T10:38:24;95831.66;;;11.92;62.79
26083;BME280;13848;49.018;12.078;2023-03-14T10:40:52;95825.75;;;11.85;63.81
26083;BME280;13848;49.018;12.078;2023-03-14T10:43:23;95825.63;;;12.11;63.48
26083;BME280;13848;49.018;12.078;2023-03-14T10:45:55;95826.25;;;11.92;62.68
26083;BME280;13848;49.018;12.078;2023-03-14T10:48:23;95818.44;;;11.76;62.20
26083;BME280;13848;49.018;12.078;2023-03-14T10:50:57;95836.84;;;11.63;62.33
26083;BME280;13848;49.018;12.078;2023-03-14T10:53:24;95852.22;;;11.68;62.60
26083;BME280;13848;49.018;12.078;2023-03-14T10:55:50;95852.25;;;11.53;62.22
26083;BME280;13848;49.018;12.078;2023-03-14T10:58:25;95842.53;;;11.46;61.68
26083;BME280;13848;49.018;12.078;2023-03-14T11:00:57;95849.50;;;11.78;61.40
26083;BME280;13848;49.018;12.078;2023-03-14T11:03:26;95837.09;;;11.67;62.16
26083;BME280;13848;49.018;12.078;2023-03-14T11:05:56;95831.94;;;11.91;61.17
26083;BME280;13848;49.018;12.078;2023-03-14T11:08:25;95833.22;;;12.09;61.74
26083;BME280;13848;49.018;12.078;2023-03-14T11:10:54;95833.00;;;11.95;60.92
26083;BME280;13848;49.018;12.078;2023-03-14T11:13:27;95838.13;;;12.02;60.99
26083;BME280;13848;49.018;12.078;2023-03-14T11:16:01;95839.50;;;11.79;61.01
26083;BME280;13848;49.018;12.078;2023-03-14T11:21:29;95845.78;;;11.49;61.53
26083;BME280;13848;49.018;12.078;2023-03-14T11:24:08;95846.59;;;11.49;61.75
26083;BME280;13848;49.018;12.078;2023-03-14T11:26:40;95844.16;;;11.48;61.87
26083;BME280;13848;49.018;12.078;2023-03-14T11:29:18;95836.09;;;11.32;61.42
26083;BME280;13848;49.018;12.078;2023-03-14T11:31:46;95836.38;;;11.10;62.56
26083;BME280;13848;49.018;12.078;2023-03-14T11:34:16;95837.72;;;11.23;62.63
26083;BME280;13848;49.018;12.078;2023-03-14T11:36:47;95831.75;;;11.36;62.33
26083;BME280;13848;49.018;12.078;2023-03-14T11:39:17;95829.59;;;11.38;61.90
26083;BME280;13848;49.018;12.078;2023-03-14T11:41:46;95822.31;;;11.39;62.31
26083;BME280;13848;49.018;12.078;2023-03-14T11:44:17;95823.13;;;11.44;62.65
26083;BME280;13848;49.018;12.078;2023-03-14T11:46:46;95826.34;;;11.46;62.37
26083;BME280;13848;49.018;12.078;2023-03-14T11:49:18;95814.47;;;11.48;62.14
26083;BME280;13848;49.018;12.078;2023-03-14T11:51:51;95821.47;;;11.59;61.66
26083;BME280;13848;49.018;12.078;2023-03-14T11:54:24;95815.53;;;11.57;61.40
26083;BME280;13848;49.018;12.078;2023-03-14T11:56:57;95807.97;;;11.54;61.11
26083;BME280;13848;49.018;12.078;2023-03-14T11:59:29;95807.41;;;11.72;61.47
26083;BME280;13848;49.018;12.078;2023-03-14T12:02:00;95808.84;;;12.24;61.47
26083;BME280;13848;49.018;12.078;2023-03-14T12:04:34;95800.66;;;12.78;61.32
26083;BME280;13848;49.018;12.078;2023-03-14T12:07:13;95791.13;;;13.15;57.58
26083;BME280;13848;49.018;12.078;2023-03-14T12:09:42;95789.59;;;13.38;58.30
26083;BME280;13848;49.018;12.078;2023-03-14T12:12:12;95788.88;;;13.27;55.32
26083;BME280;13848;49.018;12.078;2023-03-14T12:14:47;95792.38;;;12.99;57.11
26083;BME280;13848;49.018;12.078;2023-03-14T12:17:19;95784.50;;;13.02;57.26
26083;BME280;13848;49.018;12.078;2023-03-14T12:19:46;95772.34;;;12.66;57.08
26083;BME280;13848;49.018;12.078;2023-03-14T12:22:26;95772.91;;;12.63;57.58
26083;BME280;13848;49.018;12.078;2023-03-14T12:24:55;95778.44;;;12.47;57.78
26083;BME280;13848;49.018;12.078;2023-03-14T12:27:44;95773.44;;;12.25;58.41
26083;BME280;13848;49.018;12.078;2023-03-14T12:30:18;95769.53;;;12.47;58.65
26083;BME280;13848;49.018;12.078;2023-03-14T12:38:48;95756.50;;;12.05;58.95
26083;BME280;13848;49.018;12.078;2023-03-14T12:41:17;95764.84;;;12.13;59.23
26083;BME280;13848;49.018;12.078;2023-03-14T12:43:46;95768.88;;;12.16;58.84
26083;BME280;13848;49.018;12.078;2023-03-14T12:46:22;95768.66;;;12.12;58.93
26083;BME280;13848;49.018;12.078;2023-03-14T12:48:50;95766.19;;;12.11;58.53
26083;BME280;13848;49.018;12.078;2023-03-14T12:51:26;95760.78;;;12.11;59.02
26083;BME280;13848;49.018;12.078;2023-03-14T12:54:09;95755.91;;;12.18;59.24
26083;BME280;13848;49.018;12.078;2023-03-14T12:56:54;95757.50;;;12.24;59.48
26083;BME280;13848;49.018;12.078;2023-03-14T12:59:30;95748.63;;;12.18;59.39
26083;BME280;13848;49.018;12.078;2023-03-14T13:02:00;95745.56;;;12.30;59.69
26083;BME280;13848;49.018;12.078;2023-03-14T13:04:29;95744.78;;;12.24;59.71
26083;BME280;13848;49.018;12.078;2023-03-14T13:06:57;95735.44;;;12.12;60.67
26083;BME280;13848;49.018;12.078;2023-03-14T13:12:28;95743.72;;;12.20;60.22